Time;durP1;ratioP1;P1;durP2;ratioP2;P2;SDS_P1;SDS_P2;PMS_P1;PMS_P2;Temp;Humidity;BMP_temperature;BMP_pressure;BME280_temperature;BME280_humidity;BME280_pressure;Samples;Min_cycle;Max_cycle;Signal;HPM_P1;HPM_P2
2023/03/26 00:01:24;;;;;;;1999.90;999.90;;;9.80;99.90;;;;;;5071956;28;20179;-70
2023/03/26 00:03:56;;;;;;;1999.90;999.90;;;9.80;99.90;;;;;;5071619;28;20404;-71
2023/03/26 00:06:27;;;;;;;1999.90;999.90;;;9.70;99.90;;;;;;5071917;28;20471;-70
2023/03/26 00:08:56;;;;;;;1999.90;999.90;;;9.70;99.90;;;;;;5071958;28;20839;-71
2023/03/26 00:11:23;;;;;;;1999.90;999.90;;;9.70;99.90;;;;;;5071835;28;20458;-72
2023/03/26 00:13:49;;;;;;;1999.90;999.90;;;9.60;99.90;;;;;;5071688;28;20411;-71
2023/03/26 00:16:17;;;;;;;1999.90;999.90;;;9.60;99.90;;;;;;5071602;28;20433;-71
2023/03/26 00:18:43;;;;;;;1999.90;999.90;;;9.70;99.90;;;;;;5074323;28;20424;-69
2023/03/26 00:21:14;;;;;;;1999.90;999.90;;;9.70;99.90;;;;;;5075951;28;20928;-69
2023/03/26 00:23:40;;;;;;;1999.90;999.90;;;9.60;99.90;;;;;;5075725;28;20959;-69
2023/03/26 00:26:09;;;;;;;1999.90;999.90;;;9.60;99.90;;;;;;5075692;28;20514;-70
2023/03/26 00:28:40;;;;;;;1999.90;999.90;;;9.60;99.90;;;;;;5075713;28;20644;-69
2023/03/26 00:31:08;;;;;;;1999.90;999.90;;;9.60;99.90;;;;;;5075787;28;20461;-69
2023/03/26 00:33:39;;;;;;;1999.90;999.90;;;9.60;99.90;;;;;;5075535;28;20408;-69
2023/03/26 00:36:08;;;;;;;1999.90;999.90;;;9.60;99.90;;;;;;5075644;28;20529;-69
2023/03/26 00:38:37;;;;;;;1999.90;999.90;;;9.60;99.90;;;;;;5075663;28;20415;-69
2023/03/26 00:41:05;;;;;;;1999.90;999.90;;;9.60;99.90;;;;;;5075521;28;20439;-69
2023/03/26 00:43:35;;;;;;;1999.90;999.90;;;9.60;99.90;;;;;;5075271;28;20420;-69
2023/03/26 00:46:01;;;;;;;1999.90;999.90;;;9.80;99.90;;;;;;5075565;28;20922;-70
2023/03/26 00:48:28;;;;;;;1999.90;999.90;;;9.70;99.90;;;;;;5075402;28;20495;-69
2023/03/26 00:50:55;;;;;;;1999.90;999.90;;;9.80;99.90;;;;;;5075291;28;20442;-70
2023/03/26 00:53:20;;;;;;;1999.90;999.90;;;9.70;99.90;;;;;;5075095;28;20419;-70
2023/03/26 00:55:47;;;;;;;1999.90;999.90;;;10.00;99.90;;;;;;5075104;28;20949;-70
2023/03/26 00:58:13;;;;;;;1999.90;999.90;;;9.70;99.90;;;;;;5075324;28;20499;-70
2023/03/26 01:00:49;;;;;;;1999.90;999.90;;;9.60;99.90;;;;;;5075147;28;20412;-70
2023/03/26 01:03:17;;;;;;;1999.90;999.90;;;9.50;99.90;;;;;;5074867;28;20819;-69
2023/03/26 01:05:51;;;;;;;1999.90;999.90;;;9.50;99.90;;;;;;5074992;28;20420;-69
2023/03/26 01:08:47;;;;;;;1999.90;999.90;;;9.60;99.90;;;;;;5074967;28;20452;-69
2023/03/26 01:11:24;;;;;;;1999.90;999.90;;;9.40;99.90;;;;;;5066353;28;20933;-71
2023/03/26 01:13:54;;;;;;;1999.90;999.90;;;9.50;99.90;;;;;;5074753;28;20400;-69
2023/03/26 01:16:26;;;;;;;1999.90;999.90;;;9.40;99.90;;;;;;5074744;28;20476;-69
2023/03/26 01:18:52;;;;;;;1999.90;999.90;;;9.30;99.90;;;;;;5074917;28;20416;-69
2023/03/26 01:21:21;;;;;;;1999.90;999.90;;;9.30;99.90;;;;;;5074755;28;20412;-70
2023/03/26 01:23:59;;;;;;;1999.90;999.90;;;9.30;99.90;;;;;;5074579;28;20409;-69
2023/03/26 01:26:52;;;;;;;1999.90;999.90;;;9.40;99.90;;;;;;5074513;28;20485;-70
2023/03/26 01:29:30;;;;;;;1999.90;999.90;;;9.40;99.90;;;;;;5073278;28;20457;-70
2023/03/26 01:32:31;;;;;;;1999.90;999.90;;;9.40;99.90;;;;;;5074549;28;20407;-69
2023/03/26 01:35:21;;;;;;;1999.90;999.90;;;9.40;99.90;;;;;;5032209;28;20437;-70
2023/03/26 01:38:13;;;;;;;1999.90;999.90;;;9.40;99.90;;;;;;5072902;28;20441;-70
2023/03/26 01:40:45;;;;;;;1999.90;999.90;;;9.40;99.90;;;;;;5052865;28;20483;-70
2023/03/26 01:43:44;;;;;;;1999.90;999.90;;;9.40;99.90;;;;;;5074270;28;20406;-70
2023/03/26 01:46:11;;;;;;;1999.90;999.90;;;9.40;99.90;;;;;;5066658;28;20455;-69
2023/03/26 01:48:40;;;;;;;1999.90;999.90;;;9.50;99.90;;;;;;5074354;28;20456;-69
2023/03/26 01:51:07;;;;;;;1999.90;999.90;;;9.50;99.90;;;;;;5074376;28;20478;-69
2023/03/26 01:53:36;;;;;;;1999.90;999.90;;;9.50;99.90;;;;;;5073817;28;20413;-69
2023/03/26 01:56:09;;;;;;;1999.90;999.90;;;9.60;99.90;;;;;;5074062;28;20422;-70
2023/03/26 01:58:50;;;;;;;1999.90;999.90;;;9.60;99.90;;;;;;5074068;28;20419;-70
2023/03/26 02:01:16;;;;;;;1999.90;999.90;;;9.60;99.90;;;;;;5074128;28;20412;-69
2023/03/26 02:04:15;;;;;;;1999.90;999.90;;;9.60;99.90;;;;;;5073933;28;20917;-71
2023/03/26 02:06:50;;;;;;;1999.90;999.90;;;9.60;99.90;;;;;;5073379;28;20297;-72
2023/03/26 02:09:23;;;;;;;1999.90;999.90;;;9.60;99.90;;;;;;5073865;28;20469;-71
2023/03/26 02:11:50;;;;;;;1999.90;999.90;;;9.60;99.90;;;;;;5073858;28;20409;-71
2023/03/26 02:14:16;;;;;;;1999.90;999.90;;;9.60;99.90;;;;;;5073634;28;20495;-70
2023/03/26 02:16:45;;;;;;;1999.90;999.90;;;9.60;99.90;;;;;;5073602;28;20439;-70
2023/03/26 02:19:14;;;;;;;1999.90;999.90;;;9.60;99.90;;;;;;5073621;28;20410;-71
2023/03/26 02:21:41;;;;;;;1999.90;999.90;;;9.70;99.90;;;;;;5073804;28;20416;-69
2023/03/26 02:24:07;;;;;;;1999.90;999.90;;;9.70;99.90;;;;;;5073483;28;20505;-69
2023/03/26 02:26:34;;;;;;;1999.90;999.90;;;9.60;99.90;;;;;;5073526;28;20917;-71
2023/03/26 02:29:00;;;;;;;1999.90;999.90;;;9.50;99.90;;;;;;5073341;28;20457;-71
2023/03/26 02:31:26;;;;;;;1999.90;999.90;;;9.50;99.90;;;;;;5073448;28;20410;-71
2023/03/26 02:33:54;;;;;;;1999.90;999.90;;;9.50;99.90;;;;;;5073205;28;20404;-71
2023/03/26 02:36:23;;;;;;;1999.90;999.90;;;9.50;99.90;;;;;;5073429;28;20437;-70
2023/03/26 02:38:50;;;;;;;1999.90;999.90;;;9.50;99.90;;;;;;5073270;28;20413;-70
2023/03/26 02:41:16;;;;;;;1999.90;999.90;;;9.60;99.90;;;;;;5072713;28;20441;-70
2023/03/26 02:43:42;;;;;;;1999.90;999.90;;;9.60;99.90;;;;;;5073089;28;20408;-70
2023/03/26 02:46:08;;;;;;;1999.90;999.90;;;9.50;99.90;;;;;;5072935;28;20971;-69
2023/03/26 02:48:34;;;;;;;1999.90;999.90;;;9.50;99.90;;;;;;5073233;28;21003;-69
2023/03/26 02:51:00;;;;;;;1999.90;999.90;;;9.60;99.90;;;;;;5073059;28;20177;-70
2023/03/26 02:53:29;;;;;;;1999.90;999.90;;;9.60;99.90;;;;;;5072817;28;20768;-69
2023/03/26 02:55:59;;;;;;;1999.90;999.90;;;9.60;99.90;;;;;;5073055;28;21209;-70
2023/03/26 02:58:25;;;;;;;1999.90;999.90;;;9.70;99.90;;;;;;5072947;28;20408;-71
2023/03/26 03:00:53;;;;;;;1999.90;999.90;;;9.70;99.90;;;;;;5072746;28;20419;-70
2023/03/26 03:03:28;;;;;;;1999.90;999.90;;;9.70;99.90;;;;;;5072606;28;20416;-71
2023/03/26 03:05:55;;;;;;;1999.90;999.90;;;9.70;99.90;;;;;;5072777;28;20421;-69
2023/03/26 03:08:23;;;;;;;1999.90;999.90;;;9.60;99.90;;;;;;5072704;28;20486;-69
2023/03/26 03:10:58;;;;;;;1999.90;999.90;;;9.70;99.90;;;;;;5072864;28;20447;-69
2023/03/26 03:13:24;;;;;;;1999.90;999.90;;;9.70;99.90;;;;;;5072356;28;20452;-71
2023/03/26 03:15:50;;;;;;;1999.90;999.90;;;9.80;99.90;;;;;;5071954;28;20460;-71
2023/03/26 03:18:15;;;;;;;1999.90;999.90;;;9.80;99.90;;;;;;5072704;28;20264;-71
2023/03/26 03:20:41;;;;;;;1999.90;999.90;;;9.80;99.90;;;;;;5072553;28;20273;-70
2023/03/26 03:23:07;;;;;;;1999.90;999.90;;;9.70;99.90;;;;;;5072438;28;20533;-71
2023/03/26 03:25:32;;;;;;;1999.90;999.90;;;9.70;99.90;;;;;;5072400;28;20865;-69
2023/03/26 03:27:58;;;;;;;1999.90;999.90;;;9.80;99.90;;;;;;5072324;28;20205;-68
2023/03/26 03:30:24;;;;;;;1999.90;999.90;;;9.70;99.90;;;;;;5072262;28;20258;-69
2023/03/26 03:32:49;;;;;;;1999.90;999.90;;;9.70;99.90;;;;;;5072328;28;20254;-69
2023/03/26 03:35:15;;;;;;;1999.90;999.90;;;9.60;99.90;;;;;;5072508;28;20177;-69
2023/03/26 03:37:41;;;;;;;1999.90;999.90;;;9.70;99.90;;;;;;5072123;28;20774;-68
2023/03/26 03:40:09;;;;;;;1999.90;999.90;;;9.70;99.90;;;;;;5072176;28;20181;-69
2023/03/26 03:42:35;;;;;;;1999.90;999.90;;;9.70;99.90;;;;;;5072062;28;20174;-69
2023/03/26 03:45:01;;;;;;;1999.90;999.90;;;9.70;99.90;;;;;;5072117;28;20423;-69
2023/03/26 03:47:27;;;;;;;1999.90;999.90;;;9.70;99.90;;;;;;5072237;28;20428;-69
2023/03/26 03:49:52;;;;;;;1999.90;999.90;;;9.70;99.90;;;;;;5072019;28;20467;-69
2023/03/26 03:52:18;;;;;;;1999.90;999.90;;;9.70;99.90;;;;;;5071528;28;20170;-69
2023/03/26 03:54:44;;;;;;;1999.90;999.90;;;9.60;99.90;;;;;;5071926;28;20167;-70
2023/03/26 03:57:09;;;;;;;1999.90;999.90;;;9.60;99.90;;;;;;5071946;28;20187;-70
2023/03/26 03:59:35;;;;;;;1999.90;999.90;;;9.60;99.90;;;;;;5071912;28;20571;-70
2023/03/26 04:02:04;;;;;;;1999.90;999.90;;;9.70;99.90;;;;;;5072254;28;20260;-70
2023/03/26 04:04:31;;;;;;;1999.90;999.90;;;9.70;99.90;;;;;;5071945;28;20228;-69
2023/03/26 04:06:57;;;;;;;1999.90;999.90;;;9.60;99.90;;;;;;5071691;28;20421;-69
2023/03/26 04:09:22;;;;;;;1999.90;999.90;;;9.60;99.90;;;;;;5071856;28;20551;-69
2023/03/26 04:11:49;;;;;;;1999.90;999.90;;;9.50;99.90;;;;;;5071902;28;20219;-69
2023/03/26 04:14:15;;;;;;;1999.90;999.90;;;9.50;99.90;;;;;;5071634;28;20162;-68
2023/03/26 04:16:41;;;;;;;1999.90;999.90;;;9.50;99.90;;;;;;5071691;28;20431;-69
2023/03/26 04:19:07;;;;;;;1999.90;999.90;;;9.40;99.90;;;;;;5071805;28;20195;-70
2023/03/26 04:21:36;;;;;;;1999.90;999.90;;;9.30;99.90;;;;;;5071869;28;20190;-69
2023/03/26 04:24:04;;;;;;;1999.90;999.90;;;9.40;99.90;;;;;;5071612;28;20412;-68
2023/03/26 04:26:30;;;;;;;1999.90;999.90;;;9.20;99.90;;;;;;5071657;28;20969;-69
2023/03/26 04:28:59;;;;;;;1999.90;999.90;;;9.20;99.90;;;;;;5071549;28;20547;-69
2023/03/26 04:31:29;;;;;;;1999.90;999.90;;;9.20;99.90;;;;;;5071894;28;20487;-69
2023/03/26 04:34:12;;;;;;;1999.90;999.90;;;9.10;99.90;;;;;;5071567;28;20414;-69
2023/03/26 04:36:39;;;;;;;1999.90;999.90;;;9.20;99.90;;;;;;5071575;28;20430;-69
2023/03/26 04:39:05;;;;;;;1999.90;999.90;;;9.20;99.90;;;;;;5071542;28;20505;-70
2023/03/26 04:41:31;;;;;;;1999.90;999.90;;;9.20;99.90;;;;;;5071437;28;20439;-70
2023/03/26 04:44:00;;;;;;;1999.90;999.90;;;9.10;99.90;;;;;;5071369;28;20789;-68
2023/03/26 04:46:26;;;;;;;1999.90;999.90;;;9.10;99.90;;;;;;5071393;28;20190;-68
2023/03/26 04:48:53;;;;;;;1999.90;999.90;;;9.20;99.90;;;;;;5071464;28;20458;-71
2023/03/26 04:51:25;;;;;;;1999.90;999.90;;;9.20;99.90;;;;;;5071517;28;20467;-71
2023/03/26 04:53:57;;;;;;;1999.90;999.90;;;9.20;99.90;;;;;;5071260;28;20840;-69
2023/03/26 04:56:25;;;;;;;1999.90;999.90;;;9.10;99.90;;;;;;5071290;28;20424;-71
2023/03/26 04:58:55;;;;;;;1999.90;999.90;;;9.10;99.90;;;;;;5071390;28;20412;-71
2023/03/26 05:01:23;;;;;;;1999.90;999.90;;;9.10;99.90;;;;;;5071577;28;20415;-71
2023/03/26 05:03:48;;;;;;;1999.90;999.90;;;9.00;99.90;;;;;;5071902;28;20926;-71
2023/03/26 05:06:16;;;;;;;1999.90;999.90;;;8.90;99.90;;;;;;5074873;28;20437;-70
2023/03/26 05:08:42;;;;;;;1999.90;999.90;;;8.90;99.90;;;;;;5075318;28;20213;-70
2023/03/26 05:11:10;;;;;;;1999.90;999.90;;;8.70;99.90;;;;;;5075104;28;20775;-70
2023/03/26 05:13:36;;;;;;;1999.90;999.90;;;8.60;99.90;;;;;;5074758;28;20171;-69
2023/03/26 05:16:02;;;;;;;1999.90;999.90;;;8.50;99.90;;;;;;5074799;28;20519;-71
2023/03/26 05:18:27;;;;;;;1999.90;999.90;;;8.40;99.90;;;;;;5074867;28;20495;-71
2023/03/26 05:20:54;;;;;;;1999.90;999.90;;;8.40;99.90;;;;;;5074816;28;20422;-70
2023/03/26 05:23:20;;;;;;;1999.90;999.90;;;8.50;99.90;;;;;;5074830;28;20202;-70
2023/03/26 05:25:46;;;;;;;1999.90;999.90;;;8.50;99.90;;;;;;5074619;28;20501;-69
2023/03/26 05:28:11;;;;;;;1999.90;999.90;;;8.50;99.90;;;;;;5074486;28;20197;-69
2023/03/26 05:30:37;;;;;;;1999.90;999.90;;;8.50;99.90;;;;;;5074660;28;20164;-70
2023/03/26 05:33:03;;;;;;;1999.90;999.90;;;8.50;99.90;;;;;;5074461;28;20658;-70
2023/03/26 05:35:28;;;;;;;1999.90;999.90;;;8.60;99.90;;;;;;5074499;28;20640;-70
2023/03/26 05:37:54;;;;;;;1999.90;999.90;;;8.60;99.90;;;;;;5074426;28;20199;-70
2023/03/26 05:40:20;;;;;;;1999.90;999.90;;;8.60;99.90;;;;;;5074388;28;20206;-69
2023/03/26 05:42:46;;;;;;;1999.90;999.90;;;8.60;99.90;;;;;;5074351;28;20202;-70
2023/03/26 05:45:13;;;;;;;1999.90;999.90;;;8.60;99.90;;;;;;5074351;28;20930;-69
2023/03/26 05:47:39;;;;;;;1999.90;999.90;;;8.70;99.90;;;;;;5074162;28;20455;-70
2023/03/26 05:50:06;;;;;;;1999.90;999.90;;;8.70;99.90;;;;;;5074258;28;20412;-70
2023/03/26 05:52:32;;;;;;;1999.90;999.90;;;8.70;99.90;;;;;;5074299;28;20400;-70
2023/03/26 05:54:57;;;;;;;1999.90;999.90;;;8.70;99.90;;;;;;5074246;28;20399;-70
2023/03/26 05:57:27;;;;;;;1999.90;999.90;;;8.70;99.90;;;;;;5073992;28;20993;-70
2023/03/26 05:59:53;;;;;;;1999.90;999.90;;;8.70;99.90;;;;;;5074164;28;20266;-70
2023/03/26 06:02:19;;;;;;;1999.90;999.90;;;8.70;99.90;;;;;;5074057;28;20917;-70
2023/03/26 06:04:44;;;;;;;1999.90;999.90;;;8.70;99.90;;;;;;5073829;28;20416;-69
2023/03/26 06:07:10;;;;;;;1999.90;999.90;;;8.60;99.90;;;;;;5073829;28;20186;-70
2023/03/26 06:09:38;;;;;;;1999.90;999.90;;;8.50;99.90;;;;;;5073954;28;20349;-70
2023/03/26 06:12:05;;;;;;;1999.90;999.90;;;8.50;99.90;;;;;;5073822;28;20484;-70
2023/03/26 06:14:31;;;;;;;1999.90;999.90;;;8.50;99.90;;;;;;5073994;28;21140;-70
2023/03/26 06:16:57;;;;;;;1999.90;999.90;;;8.50;99.90;;;;;;5072917;28;20539;-70
2023/03/26 06:19:22;;;;;;;1999.90;999.90;;;8.40;99.90;;;;;;5073738;28;20515;-69
2023/03/26 06:21:48;;;;;;;1999.90;999.90;;;8.40;99.90;;;;;;5073692;28;20384;-70
2023/03/26 06:24:15;;;;;;;1999.90;999.90;;;8.40;99.90;;;;;;5073470;28;20168;-69
2023/03/26 06:26:41;;;;;;;1999.90;999.90;;;8.40;99.90;;;;;;5073352;28;20681;-71
2023/03/26 06:29:06;;;;;;;1999.90;999.90;;;8.40;99.90;;;;;;5073524;28;20449;-71
2023/03/26 06:31:33;;;;;;;1999.90;999.90;;;8.50;99.90;;;;;;5073492;28;20773;-71
2023/03/26 06:33:58;;;;;;;1999.90;999.90;;;8.50;99.90;;;;;;5073247;28;20537;-70
2023/03/26 06:36:24;;;;;;;1999.90;999.90;;;8.50;99.90;;;;;;5073215;28;20420;-70
2023/03/26 06:38:50;;;;;;;1999.90;999.90;;;8.60;99.90;;;;;;5073501;28;20571;-70
2023/03/26 06:41:15;;;;;;;1999.90;999.90;;;8.70;99.90;;;;;;5073207;28;20185;-70
2023/03/26 06:43:41;;;;;;;1999.90;999.90;;;8.70;99.90;;;;;;5073092;28;20201;-70
2023/03/26 06:46:06;;;;;;;1999.90;999.90;;;8.70;99.90;;;;;;5073101;28;20196;-70
2023/03/26 06:48:32;;;;;;;1999.90;999.90;;;8.80;99.90;;;;;;5073069;28;20198;-70
2023/03/26 06:50:58;;;;;;;1999.90;999.90;;;8.80;99.90;;;;;;5073081;28;20166;-70
2023/03/26 06:53:23;;;;;;;1999.90;999.90;;;8.80;99.90;;;;;;5072910;28;20162;-70
2023/03/26 06:55:49;;;;;;;1999.90;999.90;;;8.90;99.90;;;;;;5072857;28;20657;-70
2023/03/26 06:58:15;;;;;;;1999.90;999.90;;;8.90;99.90;;;;;;5072900;28;20249;-70
2023/03/26 07:00:41;;;;;;;1999.90;999.90;;;8.90;99.90;;;;;;5072985;28;20209;-70
2023/03/26 07:03:07;;;;;;;1999.90;999.90;;;9.00;99.90;;;;;;5072598;28;20802;-70
2023/03/26 07:05:33;;;;;;;1999.90;999.90;;;9.10;99.90;;;;;;5073003;28;20184;-69
2023/03/26 07:07:58;;;;;;;1999.90;999.90;;;9.00;99.90;;;;;;5072718;28;20542;-70
2023/03/26 07:10:24;;;;;;;1999.90;999.90;;;9.00;99.90;;;;;;5072692;28;20170;-70
2023/03/26 07:12:49;;;;;;;1999.90;999.90;;;9.00;99.90;;;;;;5072536;28;20532;-69
2023/03/26 07:15:15;;;;;;;1999.90;999.90;;;8.90;99.90;;;;;;5072671;28;20197;-70
2023/03/26 07:17:40;;;;;;;1999.90;999.90;;;8.90;99.90;;;;;;5072415;28;20182;-69
2023/03/26 07:20:07;;;;;;;1999.90;999.90;;;8.90;99.90;;;;;;5072590;28;20170;-69
2023/03/26 07:22:34;;;;;;;1999.90;999.90;;;8.90;99.90;;;;;;5072515;28;20181;-69
2023/03/26 07:25:00;;;;;;;1999.90;999.90;;;8.80;99.90;;;;;;5072544;28;20401;-70
2023/03/26 07:27:48;;;;;;;1999.90;999.90;;;8.80;99.90;;;;;;5072371;28;20439;-70
2023/03/26 07:30:40;;;;;;;1999.90;999.90;;;8.80;99.90;;;;;;5072412;28;20410;-69
2023/03/26 07:33:17;;;;;;;1999.90;999.90;;;8.80;99.90;;;;;;5052770;28;20414;-69
2023/03/26 07:35:49;;;;;;;1999.90;999.90;;;8.80;99.90;;;;;;5072366;28;20491;-69
2023/03/26 07:38:32;;;;;;;1999.90;999.90;;;8.70;99.90;;;;;;5072244;28;20399;-69
2023/03/26 07:41:19;;;;;;;1999.90;999.90;;;8.70;99.90;;;;;;5072193;28;20484;-71
2023/03/26 07:43:44;;;;;;;1999.90;999.90;;;8.60;99.90;;;;;;5072200;28;20777;-71
2023/03/26 07:46:12;;;;;;;1999.90;999.90;;;8.60;99.90;;;;;;5072061;28;20542;-71
2023/03/26 07:48:43;;;;;;;1999.90;999.90;;;8.50;99.90;;;;;;5072050;28;20199;-69
2023/03/26 07:51:10;;;;;;;1999.90;999.90;;;8.40;99.90;;;;;;5072100;28;20478;-68
2023/03/26 07:53:36;;;;;;;1999.90;999.90;;;8.40;99.90;;;;;;5071867;28;20404;-70
2023/03/26 07:56:20;;;;;;;1999.90;999.90;;;8.40;99.90;;;;;;5072226;28;20424;-69
2023/03/26 07:58:56;;;;;;;1999.90;999.90;;;8.40;99.90;;;;;;5072215;28;20414;-69
2023/03/26 08:01:46;;;;;;;1999.90;999.90;;;8.40;99.90;;;;;;5072012;28;20406;-69
2023/03/26 08:04:30;;;;;;;1999.90;999.90;;;8.50;99.90;;;;;;5071828;28;20405;-69
2023/03/26 08:07:09;;;;;;;1999.90;999.90;;;8.50;99.90;;;;;;5071795;28;20506;-69
2023/03/26 08:10:06;;;;;;;1999.90;999.90;;;8.60;99.90;;;;;;5071710;28;20487;-70
2023/03/26 08:12:50;;;;;;;1999.90;999.90;;;8.50;99.90;;;;;;5071657;28;20395;-70
2023/03/26 08:15:46;;;;;;;1999.90;999.90;;;8.60;99.90;;;;;;5071955;28;20937;-69
2023/03/26 08:18:28;;;;;;;1999.90;999.90;;;8.60;99.90;;;;;;5065873;28;20428;-70
2023/03/26 08:21:17;;;;;;;1999.90;999.90;;;8.60;99.90;;;;;;5071852;28;20829;-70
2023/03/26 08:24:23;;;;;;;1999.90;999.90;;;8.60;99.90;;;;;;5071545;28;20401;-70
2023/03/26 08:27:05;;;;;;;1999.90;999.90;;;8.60;99.90;;;;;;5071599;28;20418;-70
2023/03/26 08:29:50;;;;;;;1999.90;999.90;;;8.60;99.90;;;;;;5071628;28;20543;-69
2023/03/26 08:32:17;;;;;;;1999.90;999.90;;;8.70;99.90;;;;;;5071693;28;20398;-70
2023/03/26 08:34:43;;;;;;;1999.90;999.90;;;8.70;99.90;;;;;;5071343;28;20458;-69
2023/03/26 08:37:09;;;;;;;1999.90;999.90;;;8.70;99.90;;;;;;5071480;28;20924;-70
2023/03/26 08:39:37;;;;;;;1999.90;999.90;;;8.70;99.90;;;;;;5073488;28;20410;-69
2023/03/26 08:42:14;;;;;;;1999.90;999.90;;;8.70;99.90;;;;;;5075662;28;20414;-70
2023/03/26 08:44:46;;;;;;;1999.90;999.90;;;8.80;99.90;;;;;;5075428;28;20398;-69
2023/03/26 08:47:33;;;;;;;1999.90;999.90;;;8.70;99.90;;;;;;5075282;28;20422;-69
2023/03/26 08:50:28;;;;;;;1999.90;999.90;;;8.80;99.90;;;;;;5075343;28;20454;-70
2023/03/26 08:53:09;;;;;;;1999.90;999.90;;;8.80;99.90;;;;;;5075199;28;20394;-69
2023/03/26 08:56:05;;;;;;;1999.90;999.90;;;8.70;99.90;;;;;;5075272;28;20415;-69
2023/03/26 08:59:07;;;;;;;1999.90;999.90;;;8.70;99.90;;;;;;5075308;28;20438;-69
2023/03/26 09:02:07;;;;;;;1999.90;999.90;;;8.70;99.90;;;;;;5075243;28;20414;-69
2023/03/26 09:05:23;;;;;;;1999.90;999.90;;;8.70;99.90;;;;;;5075229;28;21155;-71
2023/03/26 09:08:26;;;;;;;1999.90;999.90;;;8.70;99.90;;;;;;5056881;28;20498;-70
2023/03/26 09:11:14;;;;;;;1999.90;999.90;;;8.70;99.90;;;;;;5075148;28;20406;-71
2023/03/26 09:13:42;;;;;;;1999.90;999.90;;;8.80;99.90;;;;;;5074858;28;20400;-71
2023/03/26 09:16:40;;;;;;;1999.90;999.90;;;8.80;99.90;;;;;;5074738;28;20910;-71
2023/03/26 09:19:23;;;;;;;1999.90;999.90;;;9.00;99.90;;;;;;5074988;28;20501;-71
2023/03/26 09:22:13;;;;;;;1999.90;999.90;;;9.10;99.90;;;;;;5074819;28;20404;-69
2023/03/26 09:24:54;;;;;;;1999.90;999.90;;;9.10;99.90;;;;;;5071604;28;20420;-70
2023/03/26 09:27:38;;;;;;;1999.90;999.90;;;9.10;99.90;;;;;;5070328;28;20439;-67
2023/03/26 09:30:25;;;;;;;1999.90;999.90;;;9.20;99.90;;;;;;5070875;28;20826;-69
2023/03/26 09:33:28;;;;;;;1999.90;999.90;;;9.30;99.90;;;;;;5069713;28;20416;-68
2023/03/26 09:36:18;;;;;;;1999.90;999.90;;;9.30;99.90;;;;;;5070352;28;20428;-70
2023/03/26 09:39:07;;;;;;;1999.90;999.90;;;9.40;99.90;;;;;;5069912;28;20463;-68
2023/03/26 09:41:57;;;;;;;1999.90;999.90;;;9.40;99.90;;;;;;5070630;28;20436;-71
2023/03/26 09:44:47;;;;;;;1999.90;999.90;;;9.50;99.90;;;;;;5069624;28;20830;-70
2023/03/26 09:47:33;;;;;;;1999.90;999.90;;;9.50;99.90;;;;;;5070019;28;20834;-69
2023/03/26 09:50:24;;;;;;;1999.90;999.90;;;9.60;99.90;;;;;;5069821;28;20535;-71
2023/03/26 09:52:49;;;;;;;1999.90;999.90;;;9.60;99.90;;;;;;5069371;28;20436;-69
2023/03/26 09:55:30;;;;;;;1999.90;999.90;;;9.70;99.90;;;;;;5070299;28;20412;-74
2023/03/26 09:58:08;;;;;;;1999.90;999.90;;;9.70;99.90;;;;;;5069716;28;20198;-74
2023/03/26 10:00:45;;;;;;;1999.90;999.90;;;9.90;99.90;;;;;;5069698;28;20832;-72
2023/03/26 10:03:46;;;;;;;1999.90;999.90;;;9.90;99.90;;;;;;5049866;28;20421;-69
2023/03/26 10:06:45;;;;;;;1999.90;999.90;;;10.00;99.90;;;;;;5049973;28;20438;-72
2023/03/26 10:09:36;;;;;;;1999.90;999.90;;;10.20;99.90;;;;;;5049657;28;20488;-72
2023/03/26 10:12:04;;;;;;;1999.90;999.90;;;10.30;99.90;;;;;;5049964;28;20502;-67
2023/03/26 10:14:54;;;;;;;1999.90;999.90;;;10.30;99.90;;;;;;5050032;28;20892;-68
2023/03/26 10:17:32;;;;;;;1999.90;999.90;;;10.40;99.90;;;;;;5049663;28;20507;-71
2023/03/26 10:20:27;;;;;;;1999.90;999.90;;;10.40;99.90;;;;;;5049360;28;20414;-69
2023/03/26 10:23:12;;;;;;;1999.90;999.90;;;10.60;99.90;;;;;;5049842;28;20471;-71
2023/03/26 10:25:56;;;;;;;1999.90;999.90;;;10.70;99.90;;;;;;5049731;28;20433;-70
2023/03/26 10:28:40;;;;;;;1999.90;999.90;;;10.80;99.90;;;;;;5048940;28;20560;-72
2023/03/26 10:31:21;;;;;;;1999.90;999.90;;;10.90;99.90;;;;;;5049098;28;20410;-72
2023/03/26 10:34:02;;;;;;;1999.90;999.90;;;11.00;99.90;;;;;;5048931;28;20407;-69
2023/03/26 10:36:28;;;;;;;1999.90;999.90;;;11.10;99.90;;;;;;5049480;28;20425;-72
2023/03/26 10:39:14;;;;;;;1999.90;999.90;;;11.20;99.90;;;;;;5048950;28;20437;-69
2023/03/26 10:41:42;;;;;;;1999.90;999.90;;;11.40;99.90;;;;;;5049042;28;20199;-69
2023/03/26 10:44:46;;;;;;;1999.90;999.90;;;11.50;99.90;;;;;;5048914;28;20471;-69
2023/03/26 10:47:49;;;;;;;1999.90;999.90;;;11.50;99.90;;;;;;5048683;28;20782;-71
2023/03/26 10:50:49;;;;;;;1999.90;999.90;;;11.40;99.90;;;;;;5049286;28;20809;-68
2023/03/26 10:53:24;;;;;;;1999.90;999.90;;;11.50;99.90;;;;;;5049206;28;21162;-69
2023/03/26 10:56:27;;;;;;;1999.90;999.90;;;11.10;99.90;;;;;;5048769;28;20459;-68
2023/03/26 10:58:55;;;;;;;1999.90;999.90;;;11.50;99.90;;;;;;5032234;28;20422;-68
2023/03/26 11:01:39;;;;;;;1999.90;999.90;;;11.50;99.90;;;;;;5048284;28;20415;-68
2023/03/26 11:04:27;;;;;;;1999.90;999.90;;;11.50;99.90;;;;;;5048271;28;20775;-69
2023/03/26 11:07:16;;;;;;;1999.90;999.90;;;11.50;99.90;;;;;;5043233;28;20470;-68
2023/03/26 11:09:55;;;;;;;1999.90;999.90;;;11.50;99.90;;;;;;5048357;28;20474;-69
2023/03/26 11:12:34;;;;;;;1999.90;999.90;;;11.50;99.90;;;;;;5047979;28;20409;-69
2023/03/26 11:15:28;;;;;;;1999.90;999.90;;;11.40;99.90;;;;;;5048423;28;20414;-69
2023/03/26 11:18:01;;;;;;;1999.90;999.90;;;11.40;99.90;;;;;;5048833;28;20414;-69
2023/03/26 11:20:40;;;;;;;1999.90;999.90;;;11.40;99.90;;;;;;5048385;28;20394;-69
2023/03/26 11:23:12;;;;;;;1999.90;999.90;;;11.50;99.90;;;;;;5048719;28;20444;-69
2023/03/26 11:25:37;;;;;;;1999.90;999.90;;;11.60;99.90;;;;;;5047944;28;20449;-69
2023/03/26 11:28:42;;;;;;;1999.90;999.90;;;11.60;99.90;;;;;;5047825;28;20943;-68
2023/03/26 11:31:27;;;;;;;1999.90;999.90;;;11.70;99.90;;;;;;5027099;28;20191;-69
2023/03/26 11:33:57;;;;;;;1999.90;999.90;;;11.80;99.90;;;;;;5047512;28;20420;-68
2023/03/26 11:36:30;;;;;;;1999.90;999.90;;;11.80;99.90;;;;;;5047770;28;20787;-69
2023/03/26 11:38:58;;;;;;;1999.90;999.90;;;11.90;99.90;;;;;;5048475;28;20446;-68
2023/03/26 11:41:27;;;;;;;1999.90;999.90;;;12.00;99.90;;;;;;5048220;28;21088;-68
2023/03/26 11:44:18;;;;;;;1999.90;999.90;;;12.10;99.90;;;;;;5047471;28;20850;-69
2023/03/26 11:46:46;;;;;;;1999.90;999.90;;;12.20;99.90;;;;;;5048250;28;20441;-68
2023/03/26 11:49:15;;;;;;;1999.90;999.90;;;12.20;99.90;;;;;;5047707;28;20459;-68
2023/03/26 11:51:42;;;;;;;1999.90;999.90;;;12.00;99.90;;;;;;5047556;28;20411;-69
2023/03/26 11:54:10;;;;;;;1999.90;999.90;;;11.80;99.90;;;;;;5047812;28;20833;-68
2023/03/26 11:56:56;;;;;;;1999.90;999.90;;;11.70;99.90;;;;;;5048069;28;20432;-68
2023/03/26 11:59:30;;;;;;;1999.90;999.90;;;11.50;99.90;;;;;;5048106;28;20457;-70
2023/03/26 12:01:58;;;;;;;1999.90;999.90;;;11.10;99.90;;;;;;5048305;28;20425;-68
2023/03/26 12:04:26;;;;;;;1999.90;999.90;;;10.60;99.90;;;;;;5047523;28;20421;-68
2023/03/26 12:07:31;;;;;;;1999.90;999.90;;;10.10;99.90;;;;;;5047189;28;20501;-68
2023/03/26 12:10:02;;;;;;;1999.90;999.90;;;9.80;99.90;;;;;;5034787;28;20467;-68
2023/03/26 12:12:37;;;;;;;1999.90;999.90;;;9.80;99.90;;;;;;5047539;28;20434;-68
2023/03/26 12:15:03;;;;;;;1999.90;999.90;;;9.70;99.90;;;;;;5047383;28;20494;-68
2023/03/26 12:17:34;;;;;;;1999.90;999.90;;;9.80;99.90;;;;;;5047361;28;20429;-68
2023/03/26 12:20:21;;;;;;;1999.90;999.90;;;9.70;99.90;;;;;;5047305;28;20420;-68
2023/03/26 12:22:47;;;;;;;1999.90;999.90;;;9.80;99.90;;;;;;5047932;28;21011;-68
2023/03/26 12:25:31;;;;;;;1999.90;999.90;;;9.70;99.90;;;;;;5047295;28;20405;-68
2023/03/26 12:27:57;;;;;;;1999.90;999.90;;;9.60;99.90;;;;;;5047078;28;20418;-69
2023/03/26 12:30:27;;;;;;;1999.90;999.90;;;9.70;99.90;;;;;;5047062;28;20419;-69
2023/03/26 12:32:58;;;;;;;1999.90;999.90;;;9.70;99.90;;;;;;5047301;28;20915;-68
2023/03/26 12:35:28;;;;;;;1999.90;999.90;;;9.60;99.90;;;;;;5048033;28;20414;-69
2023/03/26 12:37:54;;;;;;;1999.90;999.90;;;9.50;99.90;;;;;;5047314;28;20440;-68